sensor_id;sensor_type;location;lat;lon;timestamp;P1;durP1;ratioP1;P2;durP2;ratioP2
16512;SDS011;8369;48.030;11.598;2023-02-13T00:00:41;73.73;;;12.13;;
16512;SDS011;8369;48.030;11.598;2023-02-13T00:03:07;40.27;;;10.63;;
16512;SDS011;8369;48.030;11.598;2023-02-13T00:05:33;108.80;;;12.17;;
16512;SDS011;8369;48.030;11.598;2023-02-13T00:07:59;32.97;;;10.40;;
16512;SDS011;8369;48.030;11.598;2023-02-13T00:10:32;44.37;;;10.37;;
16512;SDS011;8369;48.030;11.598;2023-02-13T00:12:58;44.53;;;11.70;;
16512;SDS011;8369;48.030;11.598;2023-02-13T00:15:25;64.83;;;11.50;;
16512;SDS011;8369;48.030;11.598;2023-02-13T00:17:51;65.10;;;12.33;;
16512;SDS011;8369;48.030;11.598;2023-02-13T00:20:17;53.27;;;10.30;;
16512;SDS011;8369;48.030;11.598;2023-02-13T00:22:42;30.10;;;12.30;;
16512;SDS011;8369;48.030;11.598;2023-02-13T00:25:08;64.17;;;11.50;;
16512;SDS011;8369;48.030;11.598;2023-02-13T00:27:36;56.20;;;11.70;;
16512;SDS011;8369;48.030;11.598;2023-02-13T00:30:02;36.87;;;11.87;;
16512;SDS011;8369;48.030;11.598;2023-02-13T00:32:29;28.57;;;11.10;;
16512;SDS011;8369;48.030;11.598;2023-02-13T00:34:55;81.27;;;13.40;;
16512;SDS011;8369;48.030;11.598;2023-02-13T00:37:22;86.80;;;13.43;;
16512;SDS011;8369;48.030;11.598;2023-02-13T00:39:49;34.37;;;12.90;;
16512;SDS011;8369;48.030;11.598;2023-02-13T00:42:15;61.10;;;13.73;;
16512;SDS011;8369;48.030;11.598;2023-02-13T00:44:41;46.50;;;14.07;;
16512;SDS011;8369;48.030;11.598;2023-02-13T00:47:07;92.80;;;12.67;;
16512;SDS011;8369;48.030;11.598;2023-02-13T00:49:33;81.37;;;14.67;;
16512;SDS011;8369;48.030;11.598;2023-02-13T00:51:59;38.47;;;12.67;;
16512;SDS011;8369;48.030;11.598;2023-02-13T00:54:25;54.57;;;12.33;;
16512;SDS011;8369;48.030;11.598;2023-02-13T00:56:51;40.30;;;12.83;;
16512;SDS011;8369;48.030;11.598;2023-02-13T00:59:17;86.17;;;12.93;;
16512;SDS011;8369;48.030;11.598;2023-02-13T01:01:43;25.77;;;11.50;;
16512;SDS011;8369;48.030;11.598;2023-02-13T01:04:09;39.97;;;11.03;;
16512;SDS011;8369;48.030;11.598;2023-02-13T01:06:35;39.50;;;11.67;;
16512;SDS011;8369;48.030;11.598;2023-02-13T01:09:01;98.60;;;11.67;;
16512;SDS011;8369;48.030;11.598;2023-02-13T01:11:28;41.37;;;11.20;;
16512;SDS011;8369;48.030;11.598;2023-02-13T01:13:54;20.43;;;10.23;;
16512;SDS011;8369;48.030;11.598;2023-02-13T01:16:20;48.80;;;10.97;;
16512;SDS011;8369;48.030;11.598;2023-02-13T01:18:46;31.27;;;10.83;;
16512;SDS011;8369;48.030;11.598;2023-02-13T01:21:14;20.53;;;10.60;;
16512;SDS011;8369;48.030;11.598;2023-02-13T01:23:44;31.57;;;10.13;;
16512;SDS011;8369;48.030;11.598;2023-02-13T01:26:14;48.00;;;9.57;;
16512;SDS011;8369;48.030;11.598;2023-02-13T01:28:45;21.20;;;9.07;;
16512;SDS011;8369;48.030;11.598;2023-02-13T01:31:11;29.13;;;9.37;;
16512;SDS011;8369;48.030;11.598;2023-02-13T01:33:37;15.30;;;8.20;;
16512;SDS011;8369;48.030;11.598;2023-02-13T01:36:07;21.30;;;9.33;;
16512;SDS011;8369;48.030;11.598;2023-02-13T01:38:34;20.00;;;9.87;;
16512;SDS011;8369;48.030;11.598;2023-02-13T01:40:59;32.87;;;9.37;;
16512;SDS011;8369;48.030;11.598;2023-02-13T01:43:41;21.03;;;8.50;;
16512;SDS011;8369;48.030;11.598;2023-02-13T01:46:09;28.27;;;9.33;;
16512;SDS011;8369;48.030;11.598;2023-02-13T01:48:36;31.73;;;10.53;;
16512;SDS011;8369;48.030;11.598;2023-02-13T01:51:03;20.33;;;10.73;;
16512;SDS011;8369;48.030;11.598;2023-02-13T01:53:35;50.43;;;10.23;;
16512;SDS011;8369;48.030;11.598;2023-02-13T01:56:10;26.13;;;9.80;;
16512;SDS011;8369;48.030;11.598;2023-02-13T01:58:46;43.90;;;10.40;;
16512;SDS011;8369;48.030;11.598;2023-02-13T02:01:15;41.33;;;11.13;;
16512;SDS011;8369;48.030;11.598;2023-02-13T02:03:46;44.30;;;10.33;;
16512;SDS011;8369;48.030;11.598;2023-02-13T02:06:31;39.47;;;10.43;;
16512;SDS011;8369;48.030;11.598;2023-02-13T02:09:01;33.30;;;10.80;;
16512;SDS011;8369;48.030;11.598;2023-02-13T02:14:08;22.10;;;9.03;;
16512;SDS011;8369;48.030;11.598;2023-02-13T02:16:34;77.30;;;10.73;;
16512;SDS011;8369;48.030;11.598;2023-02-13T02:19:03;31.00;;;10.13;;
16512;SDS011;8369;48.030;11.598;2023-02-13T02:21:53;49.60;;;11.23;;
16512;SDS011;8369;48.030;11.598;2023-02-13T02:27:53;32.23;;;10.47;;
16512;SDS011;8369;48.030;11.598;2023-02-13T02:33:39;43.73;;;9.63;;
16512;SDS011;8369;48.030;11.598;2023-02-13T02:42:45;20.33;;;9.07;;
16512;SDS011;8369;48.030;11.598;2023-02-13T02:45:34;22.07;;;8.83;;
16512;SDS011;8369;48.030;11.598;2023-02-13T02:48:25;20.87;;;8.90;;
16512;SDS011;8369;48.030;11.598;2023-02-13T02:56:30;29.07;;;9.10;;
16512;SDS011;8369;48.030;11.598;2023-02-13T02:59:05;23.07;;;8.70;;
16512;SDS011;8369;48.030;11.598;2023-02-13T03:01:54;20.63;;;8.47;;
16512;SDS011;8369;48.030;11.598;2023-02-13T03:04:48;15.80;;;8.73;;
16512;SDS011;8369;48.030;11.598;2023-02-13T03:07:36;19.83;;;9.30;;
16512;SDS011;8369;48.030;11.598;2023-02-13T03:10:07;11.80;;;7.23;;
16512;SDS011;8369;48.030;11.598;2023-02-13T03:13:04;23.57;;;8.87;;
16512;SDS011;8369;48.030;11.598;2023-02-13T03:15:44;11.60;;;7.90;;
16512;SDS011;8369;48.030;11.598;2023-02-13T03:18:32;21.03;;;8.37;;
16512;SDS011;8369;48.030;11.598;2023-02-13T03:21:29;14.33;;;8.27;;
16512;SDS011;8369;48.030;11.598;2023-02-13T03:38:45;46.53;;;8.83;;
16512;SDS011;8369;48.030;11.598;2023-02-13T03:41:46;21.07;;;8.37;;
16512;SDS011;8369;48.030;11.598;2023-02-13T03:44:25;18.70;;;8.63;;
16512;SDS011;8369;48.030;11.598;2023-02-13T03:46:59;23.93;;;9.50;;
16512;SDS011;8369;48.030;11.598;2023-02-13T03:49:35;16.97;;;9.17;;
16512;SDS011;8369;48.030;11.598;2023-02-13T03:52:31;22.03;;;9.00;;
16512;SDS011;8369;48.030;11.598;2023-02-13T03:57:58;16.53;;;8.57;;
16512;SDS011;8369;48.030;11.598;2023-02-13T04:00:49;15.87;;;9.13;;
16512;SDS011;8369;48.030;11.598;2023-02-13T04:06:26;18.60;;;9.83;;
16512;SDS011;8369;48.030;11.598;2023-02-13T04:08:59;16.60;;;9.17;;
16512;SDS011;8369;48.030;11.598;2023-02-13T04:11:36;25.93;;;9.87;;
16512;SDS011;8369;48.030;11.598;2023-02-13T04:14:08;15.67;;;8.60;;
16512;SDS011;8369;48.030;11.598;2023-02-13T04:16:41;26.77;;;9.73;;
16512;SDS011;8369;48.030;11.598;2023-02-13T04:19:11;20.83;;;10.33;;
16512;SDS011;8369;48.030;11.598;2023-02-13T04:21:37;19.27;;;10.23;;
16512;SDS011;8369;48.030;11.598;2023-02-13T04:24:07;52.80;;;10.90;;
16512;SDS011;8369;48.030;11.598;2023-02-13T04:26:34;18.13;;;10.57;;
16512;SDS011;8369;48.030;11.598;2023-02-13T04:29:04;36.53;;;9.93;;
16512;SDS011;8369;48.030;11.598;2023-02-13T04:31:30;37.63;;;11.13;;
16512;SDS011;8369;48.030;11.598;2023-02-13T04:33:56;18.00;;;10.13;;
16512;SDS011;8369;48.030;11.598;2023-02-13T04:36:22;16.23;;;9.37;;
16512;SDS011;8369;48.030;11.598;2023-02-13T04:38:48;21.70;;;9.67;;
16512;SDS011;8369;48.030;11.598;2023-02-13T04:41:15;17.20;;;10.17;;
16512;SDS011;8369;48.030;11.598;2023-02-13T04:43:41;18.20;;;10.33;;
16512;SDS011;8369;48.030;11.598;2023-02-13T04:46:07;23.33;;;11.37;;
16512;SDS011;8369;48.030;11.598;2023-02-13T04:48:33;16.77;;;10.57;;
16512;SDS011;8369;48.030;11.598;2023-02-13T04:50:59;19.77;;;10.77;;
16512;SDS011;8369;48.030;11.598;2023-02-13T04:53:25;16.30;;;9.67;;
16512;SDS011;8369;48.030;11.598;2023-02-13T04:55:51;18.80;;;10.50;;
16512;SDS011;8369;48.030;11.598;2023-02-13T04:58:17;18.33;;;10.47;;
16512;SDS011;8369;48.030;11.598;2023-02-13T05:00:43;23.67;;;11.77;;
16512;SDS011;8369;48.030;11.598;2023-02-13T05:03:10;21.13;;;10.73;;
16512;SDS011;8369;48.030;11.598;2023-02-13T05:05:37;18.47;;;11.03;;
16512;SDS011;8369;48.030;11.598;2023-02-13T05:08:04;20.43;;;11.33;;
16512;SDS011;8369;48.030;11.598;2023-02-13T05:10:30;23.23;;;11.90;;
16512;SDS011;8369;48.030;11.598;2023-02-13T05:12:57;23.57;;;11.33;;
16512;SDS011;8369;48.030;11.598;2023-02-13T05:15:23;19.97;;;11.33;;
16512;SDS011;8369;48.030;11.598;2023-02-13T05:17:49;25.30;;;11.13;;
16512;SDS011;8369;48.030;11.598;2023-02-13T05:20:15;19.13;;;11.47;;
16512;SDS011;8369;48.030;11.598;2023-02-13T05:22:42;27.17;;;12.53;;
16512;SDS011;8369;48.030;11.598;2023-02-13T05:25:31;25.67;;;12.67;;
16512;SDS011;8369;48.030;11.598;2023-02-13T05:27:58;22.57;;;12.07;;
16512;SDS011;8369;48.030;11.598;2023-02-13T05:30:24;20.83;;;12.47;;
16512;SDS011;8369;48.030;11.598;2023-02-13T05:32:50;22.63;;;12.20;;
16512;SDS011;8369;48.030;11.598;2023-02-13T05:35:17;18.63;;;11.40;;
16512;SDS011;8369;48.030;11.598;2023-02-13T05:37:43;19.97;;;10.87;;
16512;SDS011;8369;48.030;11.598;2023-02-13T05:40:10;21.60;;;10.97;;
16512;SDS011;8369;48.030;11.598;2023-02-13T05:42:37;22.07;;;11.90;;
16512;SDS011;8369;48.030;11.598;2023-02-13T05:45:07;20.83;;;11.73;;
16512;SDS011;8369;48.030;11.598;2023-02-13T05:47:34;18.10;;;10.33;;
16512;SDS011;8369;48.030;11.598;2023-02-13T05:50:03;21.90;;;11.33;;
16512;SDS011;8369;48.030;11.598;2023-02-13T05:52:29;21.07;;;11.33;;
16512;SDS011;8369;48.030;11.598;2023-02-13T05:54:55;20.03;;;11.83;;
16512;SDS011;8369;48.030;11.598;2023-02-13T05:57:21;17.20;;;11.03;;
16512;SDS011;8369;48.030;11.598;2023-02-13T05:59:47;22.50;;;11.27;;
16512;SDS011;8369;48.030;11.598;2023-02-13T06:02:13;26.87;;;11.70;;
16512;SDS011;8369;48.030;11.598;2023-02-13T06:04:39;21.87;;;11.97;;
16512;SDS011;8369;48.030;11.598;2023-02-13T06:07:05;20.03;;;11.73;;
16512;SDS011;8369;48.030;11.598;2023-02-13T06:09:31;20.80;;;12.20;;
16512;SDS011;8369;48.030;11.598;2023-02-13T06:11:57;22.80;;;12.03;;
16512;SDS011;8369;48.030;11.598;2023-02-13T06:14:22;21.60;;;12.57;;
16512;SDS011;8369;48.030;11.598;2023-02-13T06:16:48;21.93;;;11.63;;
16512;SDS011;8369;48.030;11.598;2023-02-13T06:19:17;21.57;;;11.27;;
16512;SDS011;8369;48.030;11.598;2023-02-13T06:21:43;19.33;;;11.73;;
16512;SDS011;8369;48.030;11.598;2023-02-13T06:24:11;21.07;;;11.83;;
16512;SDS011;8369;48.030;11.598;2023-02-13T06:26:37;29.97;;;12.30;;
16512;SDS011;8369;48.030;11.598;2023-02-13T06:29:02;21.63;;;12.13;;
16512;SDS011;8369;48.030;11.598;2023-02-13T06:31:30;22.07;;;11.17;;
16512;SDS011;8369;48.030;11.598;2023-02-13T06:33:55;20.87;;;11.90;;
16512;SDS011;8369;48.030;11.598;2023-02-13T06:36:21;23.23;;;11.60;;
16512;SDS011;8369;48.030;11.598;2023-02-13T06:38:47;21.43;;;12.20;;
16512;SDS011;8369;48.030;11.598;2023-02-13T06:41:13;19.90;;;11.70;;
16512;SDS011;8369;48.030;11.598;2023-02-13T06:43:38;21.73;;;12.03;;
16512;SDS011;8369;48.030;11.598;2023-02-13T06:46:05;23.10;;;13.33;;
16512;SDS011;8369;48.030;11.598;2023-02-13T06:48:32;18.87;;;10.60;;
16512;SDS011;8369;48.030;11.598;2023-02-13T06:50:58;22.57;;;12.23;;
16512;SDS011;8369;48.030;11.598;2023-02-13T06:53:26;16.67;;;9.97;;
16512;SDS011;8369;48.030;11.598;2023-02-13T06:55:53;22.90;;;11.33;;
16512;SDS011;8369;48.030;11.598;2023-02-13T06:58:22;18.90;;;10.40;;
16512;SDS011;8369;48.030;11.598;2023-02-13T07:00:49;18.70;;;11.30;;
16512;SDS011;8369;48.030;11.598;2023-02-13T07:03:28;28.87;;;11.17;;
16512;SDS011;8369;48.030;11.598;2023-02-13T07:05:54;22.27;;;11.63;;
16512;SDS011;8369;48.030;11.598;2023-02-13T07:08:21;24.23;;;11.80;;
16512;SDS011;8369;48.030;11.598;2023-02-13T07:10:47;20.83;;;12.00;;
16512;SDS011;8369;48.030;11.598;2023-02-13T07:13:13;19.07;;;10.87;;
16512;SDS011;8369;48.030;11.598;2023-02-13T07:15:39;23.10;;;12.20;;
16512;SDS011;8369;48.030;11.598;2023-02-13T07:18:05;12.60;;;7.40;;
16512;SDS011;8369;48.030;11.598;2023-02-13T07:20:31;20.87;;;12.40;;
16512;SDS011;8369;48.030;11.598;2023-02-13T07:22:58;21.40;;;12.23;;
16512;SDS011;8369;48.030;11.598;2023-02-13T07:25:25;23.10;;;13.33;;
16512;SDS011;8369;48.030;11.598;2023-02-13T07:27:51;20.87;;;12.20;;
16512;SDS011;8369;48.030;11.598;2023-02-13T07:30:17;20.57;;;11.30;;
16512;SDS011;8369;48.030;11.598;2023-02-13T07:35:31;18.37;;;11.30;;
16512;SDS011;8369;48.030;11.598;2023-02-13T07:37:57;19.00;;;11.53;;
16512;SDS011;8369;48.030;11.598;2023-02-13T07:40:24;19.53;;;10.80;;
16512;SDS011;8369;48.030;11.598;2023-02-13T07:42:50;19.10;;;10.67;;
16512;SDS011;8369;48.030;11.598;2023-02-13T07:45:16;16.97;;;10.97;;
16512;SDS011;8369;48.030;11.598;2023-02-13T07:47:42;20.67;;;11.40;;
16512;SDS011;8369;48.030;11.598;2023-02-13T07:50:08;23.47;;;12.00;;
16512;SDS011;8369;48.030;11.598;2023-02-13T07:52:37;22.10;;;12.13;;
16512;SDS011;8369;48.030;11.598;2023-02-13T07:55:04;22.17;;;12.57;;
16512;SDS011;8369;48.030;11.598;2023-02-13T07:57:30;18.37;;;11.37;;
16512;SDS011;8369;48.030;11.598;2023-02-13T07:59:56;22.73;;;12.37;;
16512;SDS011;8369;48.030;11.598;2023-02-13T08:02:22;27.93;;;13.93;;
16512;SDS011;8369;48.030;11.598;2023-02-13T08:04:48;28.47;;;15.33;;
16512;SDS011;8369;48.030;11.598;2023-02-13T08:07:14;30.10;;;15.23;;
16512;SDS011;8369;48.030;11.598;2023-02-13T08:09:45;30.80;;;14.90;;
16512;SDS011;8369;48.030;11.598;2023-02-13T08:12:30;18.80;;;11.40;;
16512;SDS011;8369;48.030;11.598;2023-02-13T08:14:58;31.47;;;11.97;;
16512;SDS011;8369;48.030;11.598;2023-02-13T08:17:24;20.73;;;11.70;;
16512;SDS011;8369;48.030;11.598;2023-02-13T08:19:50;19.50;;;11.90;;
16512;SDS011;8369;48.030;11.598;2023-02-13T08:22:16;27.97;;;13.10;;
16512;SDS011;8369;48.030;11.598;2023-02-13T08:24:42;23.23;;;12.53;;
16512;SDS011;8369;48.030;11.598;2023-02-13T08:27:10;20.77;;;10.27;;
16512;SDS011;8369;48.030;11.598;2023-02-13T08:29:39;22.33;;;11.40;;
16512;SDS011;8369;48.030;11.598;2023-02-13T08:32:06;17.93;;;10.40;;
16512;SDS011;8369;48.030;11.598;2023-02-13T08:34:32;24.97;;;12.57;;
16512;SDS011;8369;48.030;11.598;2023-02-13T08:36:59;22.77;;;12.83;;
16512;SDS011;8369;48.030;11.598;2023-02-13T08:39:25;22.10;;;11.70;;
16512;SDS011;8369;48.030;11.598;2023-02-13T08:41:51;23.27;;;13.03;;
16512;SDS011;8369;48.030;11.598;2023-02-13T08:44:17;21.00;;;12.93;;
16512;SDS011;8369;48.030;11.598;2023-02-13T08:46:44;20.07;;;12.57;;
16512;SDS011;8369;48.030;11.598;2023-02-13T08:49:10;22.07;;;12.40;;
16512;SDS011;8369;48.030;11.598;2023-02-13T08:51:35;25.43;;;13.43;;
16512;SDS011;8369;48.030;11.598;2023-02-13T08:54:01;21.47;;;11.93;;
16512;SDS011;8369;48.030;11.598;2023-02-13T08:56:27;23.53;;;12.53;;
16512;SDS011;8369;48.030;11.598;2023-02-13T08:58:53;19.53;;;11.23;;
16512;SDS011;8369;48.030;11.598;2023-02-13T09:01:20;20.17;;;11.30;;
16512;SDS011;8369;48.030;11.598;2023-02-13T09:03:51;17.80;;;10.43;;
16512;SDS011;8369;48.030;11.598;2023-02-13T09:06:19;20.20;;;11.73;;
16512;SDS011;8369;48.030;11.598;2023-02-13T09:08:45;17.93;;;9.97;;
16512;SDS011;8369;48.030;11.598;2023-02-13T09:11:10;22.37;;;10.50;;
16512;SDS011;8369;48.030;11.598;2023-02-13T09:13:36;21.70;;;10.47;;
16512;SDS011;8369;48.030;11.598;2023-02-13T09:16:03;16.23;;;9.80;;
16512;SDS011;8369;48.030;11.598;2023-02-13T09:18:31;16.87;;;8.93;;
16512;SDS011;8369;48.030;11.598;2023-02-13T09:21:01;17.77;;;9.70;;
16512;SDS011;8369;48.030;11.598;2023-02-13T09:23:30;17.00;;;9.30;;
16512;SDS011;8369;48.030;11.598;2023-02-13T09:25:57;17.47;;;10.37;;
16512;SDS011;8369;48.030;11.598;2023-02-13T09:28:25;17.40;;;9.70;;
16512;SDS011;8369;48.030;11.598;2023-02-13T09:30:51;19.77;;;10.20;;
16512;SDS011;8369;48.030;11.598;2023-02-13T09:33:17;18.37;;;9.77;;
16512;SDS011;8369;48.030;11.598;2023-02-13T09:35:43;19.07;;;10.30;;
16512;SDS011;8369;48.030;11.598;2023-02-13T09:38:09;16.30;;;8.77;;
16512;SDS011;8369;48.030;11.598;2023-02-13T09:40:36;14.93;;;9.37;;
16512;SDS011;8369;48.030;11.598;2023-02-13T09:46:35;17.37;;;9.53;;
16512;SDS011;8369;48.030;11.598;2023-02-13T09:49:12;15.90;;;9.67;;
16512;SDS011;8369;48.030;11.598;2023-02-13T09:51:41;17.90;;;9.13;;
16512;SDS011;8369;48.030;11.598;2023-02-13T09:54:11;16.73;;;9.20;;
16512;SDS011;8369;48.030;11.598;2023-02-13T09:56:47;14.87;;;9.07;;
16512;SDS011;8369;48.030;11.598;2023-02-13T10:01:53;18.37;;;9.87;;
16512;SDS011;8369;48.030;11.598;2023-02-13T10:04:26;17.00;;;9.97;;
16512;SDS011;8369;48.030;11.598;2023-02-13T10:07:33;16.43;;;9.13;;
16512;SDS011;8369;48.030;11.598;2023-02-13T10:18:20;15.33;;;9.47;;
16512;SDS011;8369;48.030;11.598;2023-02-13T10:20:59;17.13;;;9.77;;
16512;SDS011;8369;48.030;11.598;2023-02-13T10:24:00;18.43;;;9.77;;
16512;SDS011;8369;48.030;11.598;2023-02-13T10:26:25;16.20;;;9.83;;
16512;SDS011;8369;48.030;11.598;2023-02-13T10:32:17;16.50;;;9.47;;
16512;SDS011;8369;48.030;11.598;2023-02-13T10:34:46;14.47;;;9.70;;
16512;SDS011;8369;48.030;11.598;2023-02-13T10:37:15;14.87;;;9.50;;
16512;SDS011;8369;48.030;11.598;2023-02-13T10:39:48;13.63;;;8.43;;
16512;SDS011;8369;48.030;11.598;2023-02-13T10:47:49;14.53;;;9.20;;
16512;SDS011;8369;48.030;11.598;2023-02-13T10:56:22;19.57;;;10.93;;
16512;SDS011;8369;48.030;11.598;2023-02-13T11:01:56;14.07;;;9.03;;
16512;SDS011;8369;48.030;11.598;2023-02-13T11:04:23;17.73;;;8.90;;
16512;SDS011;8369;48.030;11.598;2023-02-13T11:06:59;15.03;;;9.00;;
16512;SDS011;8369;48.030;11.598;2023-02-13T11:09:27;17.50;;;9.37;;
16512;SDS011;8369;48.030;11.598;2023-02-13T11:11:56;15.57;;;9.63;;
16512;SDS011;8369;48.030;11.598;2023-02-13T11:14:24;21.00;;;9.73;;
16512;SDS011;8369;48.030;11.598;2023-02-13T11:17:03;14.93;;;9.37;;
16512;SDS011;8369;48.030;11.598;2023-02-13T11:22:05;15.77;;;8.97;;
16512;SDS011;8369;48.030;11.598;2023-02-13T11:24:38;19.03;;;10.07;;
16512;SDS011;8369;48.030;11.598;2023-02-13T11:27:07;16.60;;;9.67;;
16512;SDS011;8369;48.030;11.598;2023-02-13T11:29:57;17.17;;;9.47;;
16512;SDS011;8369;48.030;11.598;2023-02-13T11:32:27;14.73;;;8.87;;
16512;SDS011;8369;48.030;11.598;2023-02-13T11:34:54;14.03;;;8.43;;
16512;SDS011;8369;48.030;11.598;2023-02-13T11:39:55;16.73;;;9.60;;
16512;SDS011;8369;48.030;11.598;2023-02-13T11:47:32;14.47;;;8.93;;
16512;SDS011;8369;48.030;11.598;2023-02-13T11:50:18;13.00;;;8.87;;
16512;SDS011;8369;48.030;11.598;2023-02-13T11:52:54;15.20;;;8.87;;
16512;SDS011;8369;48.030;11.598;2023-02-13T11:55:30;15.33;;;8.83;;
16512;SDS011;8369;48.030;11.598;2023-02-13T12:00:40;15.73;;;8.93;;
16512;SDS011;8369;48.030;11.598;2023-02-13T12:03:26;15.83;;;9.43;;
16512;SDS011;8369;48.030;11.598;2023-02-13T12:06:04;14.13;;;8.57;;
16512;SDS011;8369;48.030;11.598;2023-02-13T12:08:38;15.93;;;9.60;;
16512;SDS011;8369;48.030;11.598;2023-02-13T12:14:02;14.97;;;9.40;;
16512;SDS011;8369;48.030;11.598;2023-02-13T12:16:31;15.53;;;9.30;;
16512;SDS011;8369;48.030;11.598;2023-02-13T12:19:06;15.43;;;10.27;;
16512;SDS011;8369;48.030;11.598;2023-02-13T12:22:20;16.13;;;9.27;;
16512;SDS011;8369;48.030;11.598;2023-02-13T12:24:30;16.60;;;9.63;;
16512;SDS011;8369;48.030;11.598;2023-02-13T12:46:44;13.93;;;8.30;;
16512;SDS011;8369;48.030;11.598;2023-02-13T12:49:25;14.73;;;9.37;;
16512;SDS011;8369;48.030;11.598;2023-02-13T12:55:08;16.23;;;10.27;;
16512;SDS011;8369;48.030;11.598;2023-02-13T12:57:50;16.97;;;10.07;;
16512;SDS011;8369;48.030;11.598;2023-02-13T13:00:43;17.13;;;10.93;;
16512;SDS011;8369;48.030;11.598;2023-02-13T13:08:30;20.33;;;10.50;;
16512;SDS011;8369;48.030;11.598;2023-02-13T13:11:27;14.50;;;9.50;;
16512;SDS011;8369;48.030;11.598;2023-02-13T13:25:10;14.47;;;9.47;;
16512;SDS011;8369;48.030;11.598;2023-02-13T13:27:48;15.73;;;9.40;;
16512;SDS011;8369;48.030;11.598;2023-02-13T13:30:22;15.63;;;9.80;;
16512;SDS011;8369;48.030;11.598;2023-02-13T13:32:55;15.57;;;8.83;;
16512;SDS011;8369;48.030;11.598;2023-02-13T13:35:37;19.17;;;10.20;;
16512;SDS011;8369;48.030;11.598;2023-02-13T13:40:45;25.93;;;11.20;;
16512;SDS011;8369;48.030;11.598;2023-02-13T13:43:19;21.77;;;10.97;;
16512;SDS011;8369;48.030;11.598;2023-02-13T13:45:56;17.03;;;11.23;;
16512;SDS011;8369;48.030;11.598;2023-02-13T13:51:11;24.23;;;12.00;;
16512;SDS011;8369;48.030;11.598;2023-02-13T13:56:25;19.80;;;11.23;;
16512;SDS011;8369;48.030;11.598;2023-02-13T13:58:52;22.13;;;12.60;;
16512;SDS011;8369;48.030;11.598;2023-02-13T14:11:53;22.57;;;11.10;;
16512;SDS011;8369;48.030;11.598;2023-02-13T14:16:52;17.13;;;10.77;;
16512;SDS011;8369;48.030;11.598;2023-02-13T14:19:36;19.83;;;11.47;;
16512;SDS011;8369;48.030;11.598;2023-02-13T14:24:56;21.47;;;11.40;;
16512;SDS011;8369;48.030;11.598;2023-02-13T14:27:33;18.10;;;11.03;;
16512;SDS011;8369;48.030;11.598;2023-02-13T14:30:02;20.07;;;10.40;;
16512;SDS011;8369;48.030;11.598;2023-02-13T14:32:30;18.97;;;11.37;;
16512;SDS011;8369;48.030;11.598;2023-02-13T14:37:49;25.70;;;11.77;;
16512;SDS011;8369;48.030;11.598;2023-02-13T14:42:45;17.07;;;11.27;;
16512;SDS011;8369;48.030;11.598;2023-02-13T14:45:18;19.60;;;11.03;;
16512;SDS011;8369;48.030;11.598;2023-02-13T14:47:53;18.07;;;11.33;;
16512;SDS011;8369;48.030;11.598;2023-02-13T14:50:25;18.97;;;10.30;;
16512;SDS011;8369;48.030;11.598;2023-02-13T14:52:54;19.63;;;11.17;;
16512;SDS011;8369;48.030;11.598;2023-02-13T14:55:37;19.63;;;11.80;;
16512;SDS011;8369;48.030;11.598;2023-02-13T14:58:07;17.70;;;9.73;;
16512;SDS011;8369;48.030;11.598;2023-02-13T15:00:42;20.50;;;11.90;;
16512;SDS011;8369;48.030;11.598;2023-02-13T15:03:24;19.17;;;10.53;;
16512;SDS011;8369;48.030;11.598;2023-02-13T15:05:55;20.43;;;11.90;;
16512;SDS011;8369;48.030;11.598;2023-02-13T15:08:30;18.50;;;10.77;;
16512;SDS011;8369;48.030;11.598;2023-02-13T15:11:00;18.13;;;11.10;;
16512;SDS011;8369;48.030;11.598;2023-02-13T15:13:33;18.43;;;11.23;;
16512;SDS011;8369;48.030;11.598;2023-02-13T15:16:02;19.97;;;11.50;;
16512;SDS011;8369;48.030;11.598;2023-02-13T15:18:40;23.77;;;12.00;;
16512;SDS011;8369;48.030;11.598;2023-02-13T15:21:13;17.10;;;10.33;;
16512;SDS011;8369;48.030;11.598;2023-02-13T15:23:43;20.33;;;11.90;;
16512;SDS011;8369;48.030;11.598;2023-02-13T15:26:22;23.80;;;12.07;;
16512;SDS011;8369;48.030;11.598;2023-02-13T15:31:25;20.30;;;11.57;;
16512;SDS011;8369;48.030;11.598;2023-02-13T15:33:57;21.27;;;11.00;;
16512;SDS011;8369;48.030;11.598;2023-02-13T15:36:24;20.63;;;11.80;;
16512;SDS011;8369;48.030;11.598;2023-02-13T15:39:04;20.60;;;11.67;;
16512;SDS011;8369;48.030;11.598;2023-02-13T15:41:34;19.20;;;11.10;;
16512;SDS011;8369;48.030;11.598;2023-02-13T15:44:05;18.10;;;10.63;;
16512;SDS011;8369;48.030;11.598;2023-02-13T15:46:35;19.53;;;11.60;;
16512;SDS011;8369;48.030;11.598;2023-02-13T15:49:06;18.60;;;10.70;;
16512;SDS011;8369;48.030;11.598;2023-02-13T15:51:39;22.13;;;11.67;;
16512;SDS011;8369;48.030;11.598;2023-02-13T15:54:18;21.43;;;11.63;;
16512;SDS011;8369;48.030;11.598;2023-02-13T15:56:46;22.53;;;12.50;;
16512;SDS011;8369;48.030;11.598;2023-02-13T15:59:13;21.47;;;12.40;;
16512;SDS011;8369;48.030;11.598;2023-02-13T16:01:40;20.40;;;11.87;;
16512;SDS011;8369;48.030;11.598;2023-02-13T16:04:14;19.93;;;12.07;;
16512;SDS011;8369;48.030;11.598;2023-02-13T16:06:42;19.47;;;12.80;;
16512;SDS011;8369;48.030;11.598;2023-02-13T16:09:22;27.67;;;13.43;;
16512;SDS011;8369;48.030;11.598;2023-02-13T16:11:52;26.00;;;15.43;;
16512;SDS011;8369;48.030;11.598;2023-02-13T16:14:30;24.90;;;14.83;;
16512;SDS011;8369;48.030;11.598;2023-02-13T16:17:12;22.60;;;13.73;;
16512;SDS011;8369;48.030;11.598;2023-02-13T16:20:15;20.30;;;12.63;;
16512;SDS011;8369;48.030;11.598;2023-02-13T16:27:45;24.03;;;14.60;;
16512;SDS011;8369;48.030;11.598;2023-02-13T16:33:11;26.17;;;12.80;;
16512;SDS011;8369;48.030;11.598;2023-02-13T16:35:40;27.37;;;15.27;;
16512;SDS011;8369;48.030;11.598;2023-02-13T16:38:28;25.53;;;14.67;;
16512;SDS011;8369;48.030;11.598;2023-02-13T16:41:03;22.67;;;13.50;;
16512;SDS011;8369;48.030;11.598;2023-02-13T16:43:44;25.63;;;15.53;;
16512;SDS011;8369;48.030;11.598;2023-02-13T16:48:45;23.53;;;15.03;;
16512;SDS011;8369;48.030;11.598;2023-02-13T16:53:57;24.97;;;15.47;;
16512;SDS011;8369;48.030;11.598;2023-02-13T16:56:24;26.83;;;16.17;;
16512;SDS011;8369;48.030;11.598;2023-02-13T16:59:02;25.63;;;14.83;;
16512;SDS011;8369;48.030;11.598;2023-02-13T17:01:46;23.40;;;14.20;;
16512;SDS011;8369;48.030;11.598;2023-02-13T17:04:28;21.13;;;13.77;;
16512;SDS011;8369;48.030;11.598;2023-02-13T17:06:54;26.30;;;14.93;;
16512;SDS011;8369;48.030;11.598;2023-02-13T17:09:21;25.07;;;13.70;;
16512;SDS011;8369;48.030;11.598;2023-02-13T17:11:50;25.23;;;14.33;;
16512;SDS011;8369;48.030;11.598;2023-02-13T17:14:18;23.60;;;13.73;;
16512;SDS011;8369;48.030;11.598;2023-02-13T17:16:45;26.77;;;15.17;;
16512;SDS011;8369;48.030;11.598;2023-02-13T17:19:12;27.70;;;15.97;;
16512;SDS011;8369;48.030;11.598;2023-02-13T17:21:37;24.53;;;14.97;;
16512;SDS011;8369;48.030;11.598;2023-02-13T17:24:04;25.27;;;13.93;;
16512;SDS011;8369;48.030;11.598;2023-02-13T17:26:31;26.67;;;14.53;;
16512;SDS011;8369;48.030;11.598;2023-02-13T17:28:57;24.67;;;15.57;;
16512;SDS011;8369;48.030;11.598;2023-02-13T17:31:23;24.43;;;14.83;;
16512;SDS011;8369;48.030;11.598;2023-02-13T17:33:48;22.40;;;13.33;;
16512;SDS011;8369;48.030;11.598;2023-02-13T17:36:14;26.67;;;14.03;;
16512;SDS011;8369;48.030;11.598;2023-02-13T17:38:40;22.93;;;13.33;;
16512;SDS011;8369;48.030;11.598;2023-02-13T17:41:10;22.93;;;13.47;;
16512;SDS011;8369;48.030;11.598;2023-02-13T17:43:39;27.80;;;14.83;;